LVL weather

Lawrenceville Brunswick Municipal Airport
Lawrenceville, Virginia, United States

Public forecast

Using degrees Fahrenheit for public forecast. Weather courtesy of forecast.io.

METAR (pilot weather report)

Retrieved 2019/07/20 09:35 UTC (0 seconds ago):

KLVL 200935Z AUTO 00000KT 10SM CLR 25/24 A2997 RMK AO1 T02450236

TAF (pilot weather forecast)

Closest forecast is Richmond International Airport, 49.5 nm (91.7 km) NNE. Retrieved 2019/07/20 06:34 UTC (3 hours ago):

TAF KRIC 200532Z 2006/2106 20005KT P6SM SKC FM201100 25005KT P6SM SKC FM201700 23008KT P6SM SCT050